createdAt,value
2023-04-12T00:02:18.795Z,95.89
2023-04-12T00:04:55.794Z,95.60
2023-04-12T00:07:27.441Z,96.48
2023-04-12T00:09:57.372Z,97.41
2023-04-12T00:12:27.403Z,100.00
2023-04-12T00:14:57.309Z,100.00
2023-04-12T00:17:30.148Z,100.00
2023-04-12T00:20:00.396Z,100.00
2023-04-12T00:22:30.409Z,100.00
2023-04-12T00:25:01.045Z,100.00
2023-04-12T00:27:31.186Z,100.00
2023-04-12T00:30:01.330Z,100.00
2023-04-12T00:32:34.162Z,100.00
2023-04-12T00:35:04.354Z,100.00
2023-04-12T00:37:36.604Z,100.00
2023-04-12T00:40:07.311Z,100.00
2023-04-12T00:42:39.600Z,100.00
2023-04-12T00:45:10.726Z,100.00
2023-04-12T00:47:44.253Z,100.00
2023-04-12T00:50:15.435Z,100.00
2023-04-12T00:52:45.487Z,100.00
2023-04-12T00:55:16.989Z,100.00
2023-04-12T00:57:47.126Z,100.00
2023-04-12T01:00:17.962Z,100.00
2023-04-12T01:02:51.377Z,100.00
2023-04-12T01:05:25.970Z,100.00
2023-04-12T01:08:07.883Z,100.00
2023-04-12T01:10:46.967Z,100.00
2023-04-12T01:13:31.728Z,100.00
2023-04-12T01:16:10.544Z,100.00
2023-04-12T01:18:46.171Z,100.00
2023-04-12T01:21:21.084Z,100.00
2023-04-12T01:24:04.411Z,100.00
2023-04-12T01:26:39.477Z,100.00
2023-04-12T01:29:18.298Z,100.00
2023-04-12T01:31:55.900Z,100.00
2023-04-12T01:34:28.359Z,100.00
2023-04-12T01:37:00.299Z,100.00
2023-04-12T01:39:31.031Z,100.00
2023-04-12T01:42:01.019Z,100.00
2023-04-12T01:44:34.450Z,100.00
2023-04-12T01:47:06.816Z,100.00
2023-04-12T01:49:48.925Z,100.00
2023-04-12T01:52:23.573Z,100.00
2023-04-12T01:54:57.468Z,100.00
2023-04-12T01:57:30.118Z,100.00
2023-04-12T02:00:07.218Z,100.00
2023-04-12T02:02:45.126Z,100.00
2023-04-12T02:05:15.820Z,100.00
2023-04-12T02:07:46.197Z,100.00
2023-04-12T02:10:17.145Z,100.00
2023-04-12T02:12:47.358Z,100.00
2023-04-12T02:15:21.385Z,100.00
2023-04-12T02:17:54.196Z,100.00
2023-04-12T02:20:25.564Z,100.00
2023-04-12T02:22:55.726Z,100.00
2023-04-12T02:25:27.428Z,100.00
2023-04-12T02:27:57.941Z,100.00
2023-04-12T02:30:31.339Z,100.00
2023-04-12T02:33:02.924Z,100.00
2023-04-12T02:35:37.670Z,100.00
2023-04-12T02:38:14.657Z,100.00
2023-04-12T02:40:45.394Z,100.00
2023-04-12T02:43:18.716Z,100.00
2023-04-12T02:45:55.810Z,100.00
2023-04-12T02:48:25.787Z,100.00
2023-04-12T02:50:56.072Z,100.00
2023-04-12T02:53:28.379Z,100.00
2023-04-12T02:56:13.180Z,100.00
2023-04-12T02:58:43.144Z,100.00
2023-04-12T03:01:18.776Z,100.00
2023-04-12T03:04:13.951Z,100.00
2023-04-12T03:06:55.386Z,100.00
2023-04-12T03:09:33.724Z,100.00
2023-04-12T03:12:05.104Z,100.00
2023-04-12T03:14:39.792Z,100.00
2023-04-12T03:17:14.373Z,100.00
2023-04-12T03:19:44.764Z,100.00
2023-04-12T03:22:15.008Z,100.00
2023-04-12T03:24:49.840Z,100.00
2023-04-12T03:27:22.779Z,100.00
2023-04-12T03:29:55.895Z,100.00
2023-04-12T03:32:29.990Z,100.00
2023-04-12T03:35:00.582Z,100.00
2023-04-12T03:37:33.326Z,100.00
2023-04-12T03:40:05.065Z,100.00
2023-04-12T03:42:36.778Z,100.00
2023-04-12T03:45:18.519Z,100.00
2023-04-12T03:47:58.721Z,100.00
2023-04-12T03:50:29.775Z,100.00
2023-04-12T03:53:01.019Z,100.00
2023-04-12T03:55:34.541Z,100.00
2023-04-12T03:58:04.877Z,100.00
2023-04-12T04:00:41.105Z,100.00
2023-04-12T04:03:15.436Z,100.00
2023-04-12T04:05:55.768Z,100.00
2023-04-12T04:08:28.594Z,100.00
2023-04-12T04:10:59.874Z,100.00
2023-04-12T04:13:35.199Z,100.00
2023-04-12T04:16:11.157Z,100.00
2023-04-12T04:18:45.829Z,100.00
2023-04-12T04:21:19.989Z,100.00
2023-04-12T04:23:52.090Z,100.00
2023-04-12T04:26:31.511Z,100.00
2023-04-12T04:29:05.389Z,100.00
2023-04-12T04:31:48.629Z,100.00
2023-04-12T04:34:22.501Z,100.00
2023-04-12T04:36:55.600Z,100.00
2023-04-12T04:39:30.146Z,100.00
2023-04-12T04:42:01.932Z,100.00
2023-04-12T04:44:39.355Z,100.00
2023-04-12T04:47:14.409Z,100.00
2023-04-12T04:49:48.292Z,100.00
2023-04-12T04:52:28.678Z,100.00
2023-04-12T04:55:06.529Z,100.00
2023-04-12T04:57:39.896Z,100.00
2023-04-12T05:00:11.840Z,100.00
2023-04-12T05:02:46.371Z,100.00
2023-04-12T05:05:28.211Z,100.00
2023-04-12T05:08:07.677Z,100.00
2023-04-12T05:10:40.641Z,100.00
2023-04-12T05:13:12.866Z,100.00
2023-04-12T05:15:43.866Z,100.00
2023-04-12T05:18:13.932Z,100.00
2023-04-12T05:20:48.401Z,100.00
2023-04-12T05:23:19.297Z,100.00
2023-04-12T05:25:50.274Z,100.00
2023-04-12T05:28:21.760Z,100.00
2023-04-12T05:30:53.620Z,100.00
2023-04-12T05:33:29.860Z,100.00
2023-04-12T05:36:04.417Z,100.00
2023-04-12T05:38:35.668Z,100.00
2023-04-12T05:41:12.950Z,100.00
2023-04-12T05:43:44.279Z,100.00
2023-04-12T05:46:15.622Z,100.00
2023-04-12T05:48:48.346Z,100.00
2023-04-12T05:51:30.618Z,100.00
2023-04-12T05:54:08.454Z,100.00
2023-04-12T05:56:39.717Z,100.00
2023-04-12T05:59:12.578Z,100.00
2023-04-12T06:01:46.090Z,100.00
2023-04-12T06:04:16.417Z,100.00
2023-04-12T06:06:50.086Z,100.00
2023-04-12T06:09:20.065Z,100.00
2023-04-12T06:11:51.087Z,100.00
2023-04-12T06:14:21.420Z,100.00
2023-04-12T06:16:51.409Z,100.00
2023-04-12T06:19:21.683Z,100.00
2023-04-12T06:21:57.315Z,100.00
2023-04-12T06:24:27.926Z,100.00
2023-04-12T06:26:58.413Z,100.00
2023-04-12T06:29:29.050Z,100.00
2023-04-12T06:31:59.046Z,100.00
2023-04-12T06:34:29.278Z,100.00
2023-04-12T06:37:05.517Z,100.00
2023-04-12T06:39:35.842Z,100.00
2023-04-12T06:42:06.038Z,100.00
2023-04-12T06:44:37.829Z,100.00
2023-04-12T06:47:07.923Z,100.00
2023-04-12T06:49:38.029Z,100.00
2023-04-12T06:52:10.648Z,100.00
2023-04-12T06:54:40.706Z,100.00
2023-04-12T06:57:12.497Z,100.00
2023-04-12T06:59:42.708Z,100.00
2023-04-12T07:02:12.818Z,100.00
2023-04-12T07:04:42.814Z,100.00
2023-04-12T07:07:15.606Z,100.00
2023-04-12T07:09:47.418Z,100.00
2023-04-12T07:12:28.751Z,100.00
2023-04-12T07:15:04.421Z,100.00
2023-04-12T07:17:34.559Z,100.00
2023-04-12T07:20:04.549Z,100.00
2023-04-12T07:22:37.055Z,100.00
2023-04-12T07:25:10.702Z,100.00
2023-04-12T07:27:40.749Z,100.00
2023-04-12T07:30:11.954Z,100.00
2023-04-12T07:32:42.272Z,100.00
2023-04-12T07:35:12.832Z,100.00
2023-04-12T07:37:45.548Z,100.00
2023-04-12T07:40:15.787Z,100.00
2023-04-12T07:42:45.761Z,100.00
2023-04-12T07:45:15.739Z,100.00
2023-04-12T07:47:45.885Z,100.00
2023-04-12T07:50:16.810Z,100.00
2023-04-12T07:52:49.559Z,100.00
2023-04-12T07:55:19.544Z,100.00
2023-04-12T07:57:49.471Z,100.00
2023-04-12T08:00:21.088Z,100.00
2023-04-12T08:02:51.370Z,100.00
2023-04-12T08:05:21.611Z,100.00
2023-04-12T08:07:54.690Z,100.00
2023-04-12T08:10:24.793Z,100.00
2023-04-12T08:12:54.961Z,100.00
2023-04-12T08:15:25.112Z,100.00
2023-04-12T08:17:55.150Z,100.00
2023-04-12T08:20:25.252Z,100.00
2023-04-12T08:22:58.243Z,100.00
2023-04-12T08:25:28.284Z,100.00
2023-04-12T08:27:58.426Z,100.00
2023-04-12T08:30:28.563Z,100.00
2023-04-12T08:32:58.754Z,100.00
2023-04-12T08:35:28.867Z,100.00
2023-04-12T08:38:07.643Z,100.00
2023-04-12T08:40:38.918Z,100.00
2023-04-12T08:43:13.666Z,100.00
2023-04-12T08:45:43.752Z,100.00
2023-04-12T08:48:14.133Z,100.00
2023-04-12T08:50:48.032Z,100.00
2023-04-12T08:53:22.310Z,100.00
2023-04-12T08:55:52.381Z,100.00
2023-04-12T08:58:23.510Z,100.00
2023-04-12T09:00:54.289Z,100.00
2023-04-12T09:03:24.578Z,100.00
2023-04-12T09:05:54.741Z,100.00
2023-04-12T09:08:28.272Z,100.00
2023-04-12T09:10:58.380Z,100.00
2023-04-12T09:13:35.618Z,100.00
2023-04-12T09:16:06.798Z,100.00
2023-04-12T09:18:51.773Z,100.00
2023-04-12T09:21:21.933Z,100.00
2023-04-12T09:24:06.382Z,100.00
2023-04-12T09:26:36.388Z,100.00
2023-04-12T09:29:06.912Z,100.00
2023-04-12T09:31:37.185Z,100.00
2023-04-12T09:34:11.773Z,100.00
2023-04-12T09:36:43.000Z,100.00
2023-04-12T09:39:16.776Z,100.00
2023-04-12T09:41:46.927Z,100.00
2023-04-12T09:44:32.811Z,100.00
2023-04-12T09:47:04.469Z,100.00
2023-04-12T09:49:42.032Z,100.00
2023-04-12T09:52:13.849Z,100.00
2023-04-12T09:54:48.993Z,100.00
2023-04-12T09:57:21.221Z,100.00
2023-04-12T09:59:52.979Z,100.00
2023-04-12T10:02:29.657Z,100.00
2023-04-12T10:05:00.496Z,100.00
2023-04-12T10:07:30.663Z,100.00
2023-04-12T10:10:05.247Z,100.00
2023-04-12T10:12:36.622Z,100.00
2023-04-12T10:15:13.071Z,100.00
2023-04-12T10:17:46.526Z,100.00
2023-04-12T10:20:17.654Z,100.00
2023-04-12T10:22:49.201Z,100.00
2023-04-12T10:25:24.037Z,100.00
2023-04-12T10:27:54.504Z,100.00
2023-04-12T10:30:30.803Z,100.00
2023-04-12T10:33:17.005Z,100.00
2023-04-12T10:36:03.973Z,100.00
2023-04-12T10:38:47.524Z,100.00
2023-04-12T10:41:25.029Z,100.00
2023-04-12T10:43:55.431Z,99.30
2023-04-12T10:46:52.833Z,100.00
2023-04-12T10:49:22.907Z,100.00
2023-04-12T10:52:16.497Z,100.00
2023-04-12T10:54:47.096Z,99.84
2023-04-12T10:57:50.884Z,100.00
2023-04-12T11:00:25.248Z,100.00
2023-04-12T11:03:12.881Z,100.00
2023-04-12T11:06:12.639Z,90.72
2023-04-12T11:09:08.732Z,93.26
2023-04-12T11:11:44.688Z,86.01
2023-04-12T11:14:19.712Z,83.80
2023-04-12T11:17:20.252Z,82.79
2023-04-12T11:19:54.338Z,79.76
2023-04-12T11:22:25.783Z,78.25
2023-04-12T11:24:57.356Z,75.31
2023-04-12T11:27:32.733Z,72.01
2023-04-12T11:30:05.622Z,75.60
2023-04-12T11:32:41.636Z,75.63
2023-04-12T11:35:12.749Z,76.00
2023-04-12T11:37:42.920Z,79.70
2023-04-12T11:40:14.020Z,77.10
2023-04-12T11:42:44.704Z,74.49
2023-04-12T11:45:22.611Z,70.34
2023-04-12T11:47:55.135Z,77.61
2023-04-12T11:50:33.996Z,82.64
2023-04-12T11:53:15.421Z,76.12
2023-04-12T11:55:51.100Z,75.23
2023-04-12T11:58:25.511Z,85.35
2023-04-12T12:01:00.107Z,72.93
2023-04-12T12:03:31.021Z,77.03
2023-04-12T12:06:02.207Z,69.08
2023-04-12T12:08:32.804Z,69.05
2023-04-12T12:11:07.902Z,80.07
2023-04-12T12:13:50.898Z,80.54
2023-04-12T12:16:28.135Z,81.09
2023-04-12T12:19:00.164Z,81.76
2023-04-12T12:21:31.623Z,80.38
2023-04-12T12:24:02.541Z,85.54
2023-04-12T12:26:32.820Z,78.11
2023-04-12T12:29:03.259Z,80.01
2023-04-12T12:31:36.315Z,73.11
2023-04-12T12:34:09.025Z,70.63
2023-04-12T12:36:40.194Z,66.99
2023-04-12T12:39:11.792Z,64.91
2023-04-12T12:41:43.322Z,65.05
2023-04-12T12:44:14.096Z,66.46
2023-04-12T12:46:53.289Z,66.93
2023-04-12T12:49:25.632Z,62.37
2023-04-12T12:51:56.256Z,59.68
2023-04-12T12:56:59.604Z,61.65
2023-04-12T12:59:29.788Z,61.92
2023-04-12T13:02:02.712Z,67.05
2023-04-12T13:04:32.916Z,67.42
2023-04-12T13:07:02.975Z,69.38
2023-04-12T13:09:35.491Z,70.35
2023-04-12T13:12:05.874Z,68.63
2023-04-12T13:14:36.875Z,72.51
2023-04-12T13:17:09.651Z,67.60
2023-04-12T13:19:41.114Z,71.82
2023-04-12T13:22:11.326Z,72.43
2023-04-12T13:24:42.126Z,67.37
2023-04-12T13:27:15.159Z,66.33
2023-04-12T13:29:45.635Z,67.01
2023-04-12T13:32:18.791Z,74.25
2023-04-12T13:34:48.975Z,74.23
2023-04-12T13:37:19.080Z,76.22
2023-04-12T13:39:49.809Z,72.17
2023-04-12T13:42:20.452Z,70.57
2023-04-12T13:44:50.622Z,71.03
2023-04-12T13:47:23.317Z,72.85
2023-04-12T13:49:54.458Z,69.89
2023-04-12T13:52:24.522Z,68.00
2023-04-12T13:54:54.889Z,67.10
2023-04-12T13:57:25.053Z,68.79
2023-04-12T13:59:55.623Z,64.19
2023-04-12T14:02:30.705Z,64.08
2023-04-12T14:05:01.599Z,64.57
2023-04-12T14:07:31.767Z,70.60
2023-04-12T14:10:02.002Z,69.02
2023-04-12T14:12:32.054Z,69.82
2023-04-12T14:15:03.058Z,67.46
2023-04-12T14:17:35.825Z,68.78
2023-04-12T14:20:08.994Z,67.37
2023-04-12T14:22:39.101Z,70.31
2023-04-12T14:25:10.441Z,67.07
2023-04-12T14:27:40.989Z,64.77
2023-04-12T14:30:12.209Z,61.09
2023-04-12T14:32:46.719Z,60.68
2023-04-12T14:35:18.209Z,59.54
2023-04-12T14:37:48.661Z,60.07
2023-04-12T14:40:19.063Z,58.79
2023-04-12T14:42:49.546Z,57.02
2023-04-12T14:45:21.108Z,56.37
2023-04-12T14:47:53.791Z,52.86
2023-04-12T14:50:24.301Z,52.65
2023-04-12T14:52:54.668Z,55.68
2023-04-12T14:55:26.625Z,58.61
2023-04-12T14:57:56.714Z,58.50
2023-04-12T15:00:29.705Z,52.73
2023-04-12T15:03:02.999Z,51.38
2023-04-12T15:05:33.636Z,54.08
2023-04-12T15:08:04.432Z,58.54
2023-04-12T15:10:34.644Z,59.61
2023-04-12T15:13:04.701Z,61.48
2023-04-12T15:15:34.660Z,62.70
2023-04-12T15:18:07.656Z,61.55
2023-04-12T15:20:38.816Z,62.25
2023-04-12T15:23:09.477Z,62.61
2023-04-12T15:25:40.433Z,64.74
2023-04-12T15:28:10.439Z,67.05
2023-04-12T15:30:40.856Z,75.21
2023-04-12T15:33:13.515Z,93.31
2023-04-12T15:35:43.582Z,100.00
2023-04-12T15:38:16.972Z,100.00
2023-04-12T15:40:49.224Z,100.00
2023-04-12T15:43:19.462Z,100.00
2023-04-12T15:45:53.217Z,100.00
2023-04-12T15:48:28.175Z,100.00
2023-04-12T15:50:59.599Z,100.00
2023-04-12T15:53:30.212Z,100.00
2023-04-12T15:56:01.040Z,100.00
2023-04-12T15:58:31.383Z,100.00
2023-04-12T16:01:01.673Z,100.00
2023-04-12T16:03:34.795Z,100.00
2023-04-12T16:06:05.367Z,100.00
2023-04-12T16:08:35.522Z,100.00
2023-04-12T16:11:06.403Z,100.00
2023-04-12T16:13:36.960Z,100.00
2023-04-12T16:16:13.008Z,100.00
2023-04-12T16:18:46.290Z,100.00
2023-04-12T16:21:20.513Z,100.00
2023-04-12T16:23:51.671Z,100.00
2023-04-12T16:26:23.370Z,100.00
2023-04-12T16:28:54.014Z,100.00
2023-04-12T16:31:25.672Z,100.00
2023-04-12T16:33:58.693Z,100.00
2023-04-12T16:36:31.806Z,100.00
2023-04-12T16:39:03.665Z,100.00
2023-04-12T16:41:33.888Z,100.00
2023-04-12T16:44:04.169Z,100.00
2023-04-12T16:46:34.324Z,100.00
2023-04-12T16:49:07.047Z,100.00
2023-04-12T16:51:37.635Z,100.00
2023-04-12T16:54:08.205Z,100.00
2023-04-12T16:56:38.709Z,100.00
2023-04-12T16:59:09.975Z,100.00
2023-04-12T17:01:40.287Z,100.00
2023-04-12T17:04:14.683Z,100.00
2023-04-12T17:06:45.194Z,100.00
2023-04-12T17:09:15.303Z,100.00
2023-04-12T17:11:45.559Z,100.00
2023-04-12T17:14:21.333Z,100.00
2023-04-12T17:16:52.109Z,100.00
2023-04-12T17:19:25.447Z,100.00
2023-04-12T17:21:56.024Z,100.00
2023-04-12T17:24:26.627Z,100.00
2023-04-12T17:26:57.070Z,100.00
2023-04-12T17:29:28.224Z,100.00
2023-04-12T17:31:58.765Z,100.00
2023-04-12T17:34:31.945Z,100.00
2023-04-12T17:37:02.156Z,100.00
2023-04-12T17:39:32.378Z,100.00
2023-04-12T17:42:04.597Z,100.00
2023-04-12T17:44:34.647Z,100.00
2023-04-12T17:47:04.694Z,100.00
2023-04-12T17:49:37.323Z,100.00
2023-04-12T17:52:11.156Z,100.00
2023-04-12T17:54:42.003Z,100.00
2023-04-12T17:57:12.644Z,100.00
2023-04-12T17:59:42.929Z,100.00
2023-04-12T18:02:17.212Z,100.00
2023-04-12T18:04:52.568Z,100.00
2023-04-12T18:07:23.165Z,100.00
2023-04-12T18:09:53.518Z,100.00
2023-04-12T18:12:25.677Z,100.00
2023-04-12T18:14:55.989Z,100.00
2023-04-12T18:17:27.156Z,100.00
2023-04-12T18:20:02.423Z,100.00
2023-04-12T18:22:33.276Z,100.00
2023-04-12T18:25:05.246Z,100.00
2023-04-12T18:27:35.941Z,100.00
2023-04-12T18:30:06.419Z,100.00
2023-04-12T18:32:36.571Z,100.00
2023-04-12T18:35:12.140Z,100.00
2023-04-12T18:37:44.004Z,100.00
2023-04-12T18:40:16.257Z,100.00
2023-04-12T18:42:46.946Z,100.00
2023-04-12T18:45:17.798Z,100.00
2023-04-12T18:47:47.848Z,100.00
2023-04-12T18:50:21.093Z,100.00
2023-04-12T18:52:51.221Z,100.00
2023-04-12T18:55:21.418Z,100.00
2023-04-12T18:57:54.818Z,100.00
2023-04-12T19:00:24.950Z,100.00
2023-04-12T19:02:55.165Z,100.00
2023-04-12T19:05:28.273Z,100.00
2023-04-12T19:07:58.380Z,100.00
2023-04-12T19:10:31.018Z,100.00
2023-04-12T19:13:01.640Z,100.00
2023-04-12T19:15:32.304Z,100.00
2023-04-12T19:18:02.334Z,100.00
2023-04-12T19:20:35.745Z,100.00
2023-04-12T19:23:06.343Z,100.00
2023-04-12T19:25:38.043Z,100.00
2023-04-12T19:28:09.413Z,100.00
2023-04-12T19:30:39.715Z,100.00
2023-04-12T19:33:10.165Z,100.00
2023-04-12T19:35:43.095Z,100.00
2023-04-12T19:38:14.723Z,100.00
2023-04-12T19:40:46.282Z,100.00
2023-04-12T19:43:18.786Z,100.00
2023-04-12T19:45:49.456Z,100.00
2023-04-12T19:48:20.097Z,100.00
2023-04-12T19:50:55.107Z,100.00
2023-04-12T19:53:26.138Z,100.00
2023-04-12T19:56:00.159Z,100.00
2023-04-12T19:58:31.647Z,100.00
2023-04-12T20:01:04.285Z,100.00
2023-04-12T20:03:36.110Z,100.00
2023-04-12T20:06:11.354Z,100.00
2023-04-12T20:08:42.377Z,100.00
2023-04-12T20:11:13.965Z,100.00
2023-04-12T20:13:44.560Z,100.00
2023-04-12T20:16:15.762Z,100.00
2023-04-12T20:18:46.242Z,100.00
2023-04-12T20:21:19.626Z,100.00
2023-04-12T20:23:51.210Z,100.00
2023-04-12T20:26:23.542Z,100.00
2023-04-12T20:28:54.559Z,100.00
2023-04-12T20:31:26.563Z,100.00
2023-04-12T20:33:57.562Z,100.00
2023-04-12T20:36:31.154Z,100.00
2023-04-12T20:39:01.756Z,100.00
2023-04-12T20:41:32.161Z,100.00
2023-04-12T20:44:02.263Z,100.00
2023-04-12T20:46:36.819Z,100.00
2023-04-12T20:49:07.843Z,100.00
2023-04-12T20:51:40.597Z,100.00
2023-04-12T20:54:10.964Z,100.00
2023-04-12T20:56:41.157Z,100.00
2023-04-12T20:59:11.234Z,100.00
2023-04-12T21:01:43.364Z,100.00
2023-04-12T21:04:16.270Z,100.00
2023-04-12T21:06:51.613Z,100.00
2023-04-12T21:09:21.964Z,100.00
2023-04-12T21:11:52.717Z,100.00
2023-04-12T21:14:23.379Z,100.00
2023-04-12T21:16:54.650Z,100.00
2023-04-12T21:19:24.656Z,100.00
2023-04-12T21:21:57.430Z,100.00
2023-04-12T21:24:27.597Z,100.00
2023-04-12T21:27:00.214Z,100.00
2023-04-12T21:29:33.748Z,100.00
2023-04-12T21:32:08.576Z,100.00
2023-04-12T21:34:39.700Z,100.00
2023-04-12T21:37:12.520Z,100.00
2023-04-12T21:39:43.769Z,100.00
2023-04-12T21:42:13.920Z,100.00
2023-04-12T21:44:44.654Z,100.00
2023-04-12T21:47:14.923Z,100.00
2023-04-12T21:49:45.319Z,100.00
2023-04-12T21:52:18.758Z,100.00
2023-04-12T21:54:48.684Z,100.00
2023-04-12T21:57:19.232Z,100.00
2023-04-12T21:59:49.313Z,100.00
2023-04-12T22:02:19.794Z,100.00
2023-04-12T22:04:50.106Z,100.00
2023-04-12T22:07:22.981Z,100.00
2023-04-12T22:09:53.672Z,100.00
2023-04-12T22:12:25.785Z,100.00
2023-04-12T22:14:57.774Z,100.00
2023-04-12T22:20:00.512Z,100.00
2023-04-12T22:22:33.489Z,100.00
2023-04-12T22:25:04.862Z,100.00
2023-04-12T22:27:35.368Z,100.00
2023-04-12T22:30:05.704Z,100.00
2023-04-12T22:32:36.315Z,100.00
2023-04-12T22:35:08.753Z,100.00
2023-04-12T22:37:42.425Z,100.00
2023-04-12T22:40:14.438Z,100.00
2023-04-12T22:42:56.268Z,100.00
2023-04-12T22:45:28.829Z,100.00
2023-04-12T22:47:59.672Z,100.00
2023-04-12T22:50:29.854Z,100.00
2023-04-12T22:53:03.289Z,100.00
2023-04-12T22:55:33.416Z,100.00
2023-04-12T22:58:08.388Z,100.00
2023-04-12T23:00:39.727Z,100.00
2023-04-12T23:03:11.475Z,100.00
2023-04-12T23:05:45.001Z,100.00
2023-04-12T23:08:20.826Z,100.00
2023-04-12T23:10:51.395Z,100.00
2023-04-12T23:13:21.530Z,100.00
2023-04-12T23:15:52.051Z,100.00
2023-04-12T23:18:22.534Z,100.00
2023-04-12T23:20:52.708Z,100.00
2023-04-12T23:23:26.474Z,100.00
2023-04-12T23:25:57.466Z,100.00
2023-04-12T23:28:28.674Z,100.00
2023-04-12T23:31:02.055Z,100.00
2023-04-12T23:33:32.829Z,100.00
2023-04-12T23:36:05.775Z,100.00
2023-04-12T23:38:38.947Z,100.00
2023-04-12T23:41:11.717Z,100.00
2023-04-12T23:43:41.927Z,100.00
2023-04-12T23:46:12.582Z,100.00
2023-04-12T23:48:42.618Z,100.00
2023-04-12T23:51:12.728Z,100.00
2023-04-12T23:53:45.608Z,100.00
2023-04-12T23:56:16.022Z,100.00
2023-04-12T23:58:46.947Z,100.00
